Time;durP1;ratioP1;P1;durP2;ratioP2;P2;SDS_P1;SDS_P2;PMS_P1;PMS_P2;Temp;Humidity;BMP_temperature;BMP_pressure;BME280_temperature;BME280_humidity;BME280_pressure;Samples;Min_cycle;Max_cycle;Signal;HPM_P1;HPM_P2
2021/12/09 00:01:45;;;;;;;3.85;2.25;;;;;;;-0.61;100.00;96910.88;5028584;28;20037;-91
2021/12/09 00:04:14;;;;;;;5.25;2.30;;;;;;;-0.38;100.00;96961.91;5030546;28;20021;-92
2021/12/09 00:06:42;;;;;;;3.25;3.03;;;;;;;-0.44;100.00;96949.81;5022724;28;20025;-89
2021/12/09 00:09:10;;;;;;;1.63;1.52;;;;;;;-0.63;100.00;96931.09;5012201;28;20508;-91
2021/12/09 00:11:43;;;;;;;3.00;2.75;;;;;;;-1.03;100.00;96853.50;5020643;28;20029;-91
2021/12/09 00:14:22;;;;;;;1.95;1.83;;;;;;;-0.54;100.00;96943.09;5030963;28;20026;-92
2021/12/09 00:16:48;;;;;;;1.88;0.88;;;;;;;-0.64;100.00;96934.59;5010218;28;20097;-93
2021/12/09 00:19:15;;;;;;;1.90;1.30;;;;;;;-0.75;100.00;96927.94;4993383;28;20029;-92
2021/12/09 00:21:41;;;;;;;3.05;1.70;;;;;;;-0.70;100.00;96947.03;4993761;28;20115;-93
2021/12/09 00:24:07;;;;;;;3.17;1.75;;;;;;;-0.68;100.00;96951.34;4993773;28;20548;-90
2021/12/09 00:26:33;;;;;;;4.40;2.38;;;;;;;-1.01;100.00;96909.41;5014756;28;20029;-91
2021/12/09 00:28:59;;;;;;;1.15;0.77;;;;;;;-0.80;100.00;96962.16;4988803;28;20044;-91
2021/12/09 00:31:25;;;;;;;3.03;2.00;;;;;;;-0.73;100.00;96941.88;5028724;28;20029;-90
2021/12/09 00:33:51;;;;;;;1.10;0.93;;;;;;;-0.68;100.00;96961.00;5010078;28;20033;-89
2021/12/09 00:36:26;;;;;;;2.05;1.85;;;;;;;-0.71;100.00;96934.84;5008402;28;20095;-91
2021/12/09 00:38:57;;;;;;;0.40;0.40;;;;;;;-0.70;100.00;96934.78;5013412;28;20049;-91
2021/12/09 00:41:23;;;;;;;2.97;2.03;;;;;;;-0.55;100.00;96944.84;5024741;28;20033;-91
2021/12/09 00:43:49;;;;;;;0.98;0.98;;;;;;;-0.75;100.00;96930.56;5043374;28;20080;-92
2021/12/09 00:46:15;;;;;;;8.70;2.90;;;;;;;-0.73;100.00;96926.13;5020303;28;20018;-90
2021/12/09 00:48:41;;;;;;;1.40;1.30;;;;;;;-0.73;100.00;96937.47;5022770;28;20059;-90
2021/12/09 00:51:07;;;;;;;1.85;1.70;;;;;;;-0.92;100.00;96899.50;5026357;28;20026;-90
2021/12/09 00:53:33;;;;;;;11.40;1.70;;;;;;;-0.78;100.00;96921.00;5018342;28;20556;-91
2021/12/09 00:55:59;;;;;;;4.43;2.65;;;;;;;-0.75;100.00;96905.16;5021008;28;20033;-90
2021/12/09 00:58:25;;;;;;;2.70;2.47;;;;;;;-0.56;100.00;96944.91;5026213;28;20026;-92
2021/12/09 01:00:51;;;;;;;2.20;1.17;;;;;;;-0.47;100.00;96930.66;5006174;28;20025;-91
2021/12/09 01:03:17;;;;;;;0.47;0.47;;;;;;;-0.18;100.00;96922.75;5017536;28;20036;-91
2021/12/09 01:05:46;;;;;;;1.40;1.15;;;;;;;-0.44;100.00;96850.00;5015974;28;20447;-90
2021/12/09 01:08:12;;;;;;;1.42;1.38;;;;;;;-0.13;100.00;96915.63;5044013;28;20027;-92
2021/12/09 01:10:38;;;;;;;0.50;0.50;;;;;;;-0.17;100.00;96916.59;5011537;28;20029;-91
2021/12/09 01:13:04;;;;;;;0.50;0.50;;;;;;;-0.19;100.00;96903.53;5020161;28;20101;-92
2021/12/09 01:15:30;;;;;;;1.77;1.52;;;;;;;-0.38;100.00;96897.09;5027395;28;20049;-90
2021/12/09 01:17:56;;;;;;;0.85;0.85;;;;;;;-0.59;100.00;96861.84;5034803;28;20026;-91
2021/12/09 01:20:26;;;;;;;0.80;0.80;;;;;;;-0.63;100.00;96870.69;5028964;28;20033;-93
2021/12/09 01:22:54;;;;;;;0.65;0.65;;;;;;;-0.82;100.00;96845.88;5050294;28;20033;-90
2021/12/09 01:25:21;;;;;;;1.45;1.17;;;;;;;-0.52;100.00;96901.03;5029928;28;20040;-92
2021/12/09 01:27:48;;;;;;;1.13;1.13;;;;;;;-0.76;100.00;96864.06;5034578;28;20037;-88
2021/12/09 01:30:17;;;;;;;1.52;1.42;;;;;;;-0.68;100.00;96882.25;5015067;28;20034;-92
2021/12/09 01:32:51;;;;;;;2.08;1.92;;;;;;;-0.74;100.00;96870.13;5034668;28;20056;-92
2021/12/09 01:35:24;;;;;;;2.45;0.93;;;;;;;-0.58;100.00;96881.03;5027473;28;20186;-93
2021/12/09 01:38:12;;;;;;;0.43;0.43;;;;;;;-0.63;100.00;96875.06;5023365;28;20030;-94
2021/12/09 01:40:38;;;;;;;5.90;2.05;;;;;;;-0.70;100.00;96884.88;5044372;28;20452;-93
2021/12/09 01:43:04;;;;;;;0.82;0.82;;;;;;;-0.92;100.00;96861.94;5024842;28;20457;-93
2021/12/09 01:45:29;;;;;;;0.63;0.63;;;;;;;-0.96;100.00;96858.53;5028253;28;20028;-92
2021/12/09 01:47:55;;;;;;;0.80;0.80;;;;;;;-0.95;100.00;96877.78;5032528;28;20063;-91
2021/12/09 01:50:22;;;;;;;1.48;1.10;;;;;;;-0.68;100.00;96911.94;5028839;28;20029;-92
2021/12/09 01:52:48;;;;;;;3.83;1.08;;;;;;;-0.59;100.00;96898.59;5026609;28;20088;-93
2021/12/09 01:55:15;;;;;;;0.68;0.68;;;;;;;-0.50;100.00;96902.72;5029140;28;20029;-91
2021/12/09 01:57:41;;;;;;;0.70;0.70;;;;;;;-0.78;100.00;96857.16;5013662;28;20033;-93
2021/12/09 02:00:11;;;;;;;2.53;2.33;;;;;;;-0.71;100.00;96880.53;5008300;28;20029;-92
2021/12/09 02:02:38;;;;;;;2.35;2.15;;;;;;;-0.64;100.00;96883.84;5031927;28;20033;-91
2021/12/09 02:05:05;;;;;;;2.20;2.00;;;;;;;-0.74;100.00;96864.03;5035272;28;20025;-94
2021/12/09 02:07:31;;;;;;;2.63;2.42;;;;;;;-0.82;100.00;96845.00;5032872;28;20033;-94
2021/12/09 02:09:57;;;;;;;3.83;3.53;;;;;;;-0.67;100.00;96863.81;5052497;28;20025;-93
2021/12/09 02:12:28;;;;;;;2.30;2.20;;;;;;;-0.66;100.00;96849.78;5032548;28;20017;-94
2021/12/09 02:14:54;;;;;;;32.50;13.15;;;;;;;-0.39;100.00;96898.00;5029254;28;20480;-92
2021/12/09 02:17:20;;;;;;;16.77;8.45;;;;;;;-0.70;100.00;96842.88;5026155;28;20036;-92
2021/12/09 02:19:49;;;;;;;16.42;7.88;;;;;;;-0.63;100.00;96860.19;5028858;28;20049;-95
2021/12/09 02:22:15;;;;;;;22.15;9.82;;;;;;;-0.35;100.00;96898.75;5030371;28;20033;-92
2021/12/09 02:24:42;;;;;;;21.17;10.00;;;;;;;-0.76;100.00;96843.06;5029655;28;20029;-93
2021/12/09 02:27:08;;;;;;;25.13;9.55;;;;;;;-0.65;100.00;96871.66;5027914;28;20551;-92
2021/12/09 02:29:34;;;;;;;37.17;16.35;;;;;;;-0.48;100.00;96900.03;5031162;28;20013;-93
2021/12/09 02:32:01;;;;;;;23.73;12.75;;;;;;;-0.86;100.00;96840.78;5030345;28;20085;-93
2021/12/09 02:34:28;;;;;;;34.97;13.40;;;;;;;-0.75;100.00;96854.44;5030732;28;20136;-91
2021/12/09 02:36:54;;;;;;;39.95;17.08;;;;;;;-0.63;100.00;96869.81;5028548;28;20026;-94
2021/12/09 02:39:20;;;;;;;33.63;13.68;;;;;;;-0.61;100.00;96862.75;5029374;28;20127;-93
2021/12/09 02:41:47;;;;;;;37.78;16.70;;;;;;;-0.99;100.00;96810.53;5027893;28;20033;-92
2021/12/09 02:44:17;;;;;;;32.20;12.68;;;;;;;-0.95;100.00;96828.75;5027237;28;20017;-93
2021/12/09 02:46:44;;;;;;;24.17;10.13;;;;;;;-0.56;100.00;96898.50;5023166;28;20081;-92
2021/12/09 02:49:16;;;;;;;18.58;8.88;;;;;;;-0.62;100.00;96903.94;5028673;28;20060;-91
2021/12/09 02:51:42;;;;;;;;;;;;;;;-0.64;100.00;96889.09;5013652;28;20025;-92
2021/12/09 02:54:10;;;;;;;21.70;8.52;;;;;;;-0.74;100.00;96883.25;5025816;28;19909;-91
2021/12/09 02:56:36;;;;;;;27.33;10.50;;;;;;;-0.86;100.00;96867.84;5029126;28;20067;-92
2021/12/09 02:59:04;;;;;;;26.42;10.55;;;;;;;-0.93;100.00;96865.47;5018857;28;20037;-93
2021/12/09 03:01:34;;;;;;;26.23;11.10;;;;;;;-0.92;100.00;96877.69;5014831;28;20039;-92
2021/12/09 03:04:02;;;;;;;25.38;12.07;;;;;;;-1.00;100.00;96863.91;5008515;28;20041;-93
2021/12/09 03:06:36;;;;;;;26.00;12.77;;;;;;;-0.76;100.00;96905.19;5021547;28;20028;-92
2021/12/09 03:09:21;;;;;;;22.23;10.93;;;;;;;-0.70;100.00;96926.91;5026678;28;20013;-93
2021/12/09 03:11:54;;;;;;;23.20;9.95;;;;;;;-0.98;100.00;96872.56;5026894;28;20218;-93
2021/12/09 03:14:22;;;;;;;22.52;9.55;;;;;;;-0.88;100.00;96889.78;5027679;28;20009;-93
2021/12/09 03:16:47;;;;;;;26.45;10.57;;;;;;;-0.81;100.00;96914.97;5028433;28;20013;-93
2021/12/09 03:19:13;;;;;;;33.80;15.77;;;;;;;-0.88;100.00;96916.91;5015514;28;20033;-93
2021/12/09 03:21:42;;;;;;;53.45;23.63;;;;;;;-0.98;100.00;96880.44;5013922;28;20038;-92
2021/12/09 03:24:13;;;;;;;41.33;18.45;;;;;;;-0.84;100.00;96894.94;5020718;28;20083;-92
2021/12/09 03:26:42;;;;;;;43.45;18.55;;;;;;;-0.64;100.00;96921.47;5010859;28;20101;-91
2021/12/09 03:29:11;;;;;;;36.50;17.48;;;;;;;-0.60;100.00;96917.00;5018778;28;20119;-91
2021/12/09 03:31:41;;;;;;;24.42;12.57;;;;;;;-0.67;100.00;96892.69;5025407;28;20141;-91
2021/12/09 03:34:10;;;;;;;30.20;13.50;;;;;;;-0.69;100.00;96897.13;5025870;28;20033;-94
2021/12/09 03:36:36;;;;;;;16.58;8.38;;;;;;;-0.92;100.00;96847.03;5025583;28;20059;-92
2021/12/09 03:39:06;;;;;;;22.95;10.77;;;;;;;-0.82;100.00;96866.88;5020477;28;20109;-91
2021/12/09 03:41:32;;;;;;;19.38;10.15;;;;;;;-0.68;100.00;96892.75;5028282;28;20025;-91
2021/12/09 03:43:57;;;;;;;22.13;8.98;;;;;;;-1.05;100.00;96814.19;5028539;28;20084;-94
2021/12/09 03:46:26;;;;;;;16.75;8.20;;;;;;;-0.64;100.00;96895.22;5017095;28;20022;-91
2021/12/09 03:48:52;;;;;;;20.27;10.70;;;;;;;-0.96;100.00;96852.41;5012519;28;20093;-93
2021/12/09 03:51:18;;;;;;;26.25;12.20;;;;;;;-0.98;100.00;96870.81;5014494;28;20040;-93
2021/12/09 03:53:44;;;;;;;25.83;11.50;;;;;;;-0.90;100.00;96874.09;5010487;28;20025;-93
2021/12/09 03:56:09;;;;;;;29.85;13.90;;;;;;;-0.89;100.00;96878.44;5016301;28;20080;-94
2021/12/09 03:58:35;;;;;;;27.40;12.73;;;;;;;-0.88;100.00;96906.41;5014857;28;20029;-93
2021/12/09 04:01:01;;;;;;;30.08;13.80;;;;;;;-1.00;100.00;96853.41;5012022;28;20103;-92
2021/12/09 04:03:27;;;;;;;28.02;13.57;;;;;;;-1.04;100.00;96841.25;5024609;28;20097;-92
2021/12/09 04:05:53;;;;;;;21.67;11.68;;;;;;;-0.93;100.00;96850.56;5028713;28;20029;-92
2021/12/09 04:08:21;;;;;;;33.45;14.10;;;;;;;-0.88;100.00;96851.28;5028855;28;20088;-94
2021/12/09 04:10:49;;;;;;;28.40;14.48;;;;;;;-0.79;100.00;96856.28;5028081;28;20033;-92
2021/12/09 04:13:15;;;;;;;34.95;13.57;;;;;;;-0.86;100.00;96827.66;5028454;28;20035;-93
2021/12/09 04:15:41;;;;;;;30.63;14.55;;;;;;;-0.61;100.00;96868.88;5024425;28;20061;-92
2021/12/09 04:18:06;;;;;;;31.38;14.07;;;;;;;-0.48;100.00;96892.16;5028711;28;20033;-91
2021/12/09 04:20:32;;;;;;;31.98;15.02;;;;;;;-0.76;100.00;96850.94;5028239;28;20025;-92
2021/12/09 04:22:58;;;;;;;31.50;14.48;;;;;;;-0.45;100.00;96899.94;5026666;28;20022;-92
2021/12/09 04:25:25;;;;;;;32.88;15.80;;;;;;;-0.34;100.00;96919.72;5025600;28;20021;-93
2021/12/09 04:27:53;;;;;;;33.67;14.82;;;;;;;-0.21;100.00;96935.97;5011934;28;20029;-93
2021/12/09 04:30:19;;;;;;;80.85;31.55;;;;;;;-0.35;100.00;96917.16;5010755;28;20036;-92
2021/12/09 04:32:46;;;;;;;65.22;25.50;;;;;;;-0.30;100.00;96929.25;5027362;28;20029;-92
2021/12/09 04:35:12;;;;;;;52.20;20.60;;;;;;;-0.20;100.00;96928.06;5021115;28;20067;-93
2021/12/09 04:37:38;;;;;;;69.75;28.05;;;;;;;-0.33;100.00;96916.19;5018121;28;20046;-92
2021/12/09 04:40:09;;;;;;;88.20;37.00;;;;;;;-0.27;100.00;96928.28;4991138;28;20046;-94
2021/12/09 04:42:35;;;;;;;74.90;31.48;;;;;;;-0.34;100.00;96946.00;5009950;28;20045;-94
2021/12/09 04:45:01;;;;;;;76.38;32.60;;;;;;;-0.46;100.00;96940.25;5007383;28;20029;-88
2021/12/09 04:47:29;;;;;;;78.00;33.40;;;;;;;-0.36;100.00;96946.94;4991879;28;20034;-92
2021/12/09 04:49:55;;;;;;;75.97;32.10;;;;;;;-0.93;100.00;96854.97;5009107;28;20036;-92
2021/12/09 04:52:20;;;;;;;80.85;35.85;;;;;;;-0.55;100.00;96931.72;4991686;28;20030;-91
2021/12/09 04:54:46;;;;;;;80.97;35.50;;;;;;;-0.70;100.00;96869.13;5018145;28;20056;-93
2021/12/09 04:57:13;;;;;;;77.57;31.95;;;;;;;-0.56;100.00;96906.38;5028180;28;20049;-92
2021/12/09 04:59:39;;;;;;;74.40;33.95;;;;;;;-0.52;100.00;96909.75;5024963;28;20013;-91
2021/12/09 05:05:17;;;;;;;81.07;35.40;;;;;;;-0.64;100.00;96900.47;5026503;28;20466;-93
2021/12/09 05:07:43;;;;;;;56.80;25.55;;;;;;;-0.65;100.00;96905.78;4995471;28;20029;-92
2021/12/09 05:10:09;;;;;;;67.85;28.92;;;;;;;-0.57;100.00;96906.41;4995244;28;20022;-92
2021/12/09 05:12:35;;;;;;;57.25;25.48;;;;;;;-0.61;100.00;96913.50;5007309;28;20489;-93
2021/12/09 05:15:01;;;;;;;17.98;9.20;;;;;;;-0.31;100.00;96921.44;5011242;28;20406;-92
2021/12/09 05:17:29;;;;;;;61.53;23.15;;;;;;;-0.32;100.00;96906.56;5031736;28;20040;-92
2021/12/09 05:19:55;;;;;;;8.85;4.40;;;;;;;-0.06;100.00;96909.25;5028575;28;20037;-92
2021/12/09 05:22:21;;;;;;;23.83;10.98;;;;;;;0.83;100.00;96882.63;5027754;28;20033;-92
2021/12/09 05:24:49;;;;;;;8.40;4.72;;;;;;;1.64;92.10;96899.03;5027776;28;20033;-92
2021/12/09 05:27:16;;;;;;;46.65;20.20;;;;;;;1.81;95.23;96886.09;5029653;28;20045;-93
2021/12/09 05:29:43;;;;;;;66.25;28.92;;;;;;;1.34;97.04;96852.75;5018415;28;20508;-93
2021/12/09 05:32:11;;;;;;;69.90;31.40;;;;;;;1.36;100.00;96920.25;5009526;28;20033;-91
2021/12/09 05:35:11;;;;;;;73.60;34.42;;;;;;;1.29;100.00;96929.31;5010615;28;20037;-92
2021/12/09 05:37:37;;;;;;;68.93;29.55;;;;;;;0.66;100.00;96869.22;5023007;28;20151;-91
2021/12/09 05:40:18;;;;;;;79.25;34.33;;;;;;;0.38;100.00;96840.34;5023316;28;20057;-90
2021/12/09 05:42:44;;;;;;;28.90;13.35;;;;;;;0.41;100.00;96842.00;4994070;28;20033;-91
2021/12/09 05:45:10;;;;;;;11.13;4.78;;;;;;;1.24;95.15;96867.16;5005819;28;20043;-81
2021/12/09 05:47:36;;;;;;;6.43;3.47;;;;;;;2.29;86.76;96908.81;5025460;28;20029;-89
2021/12/09 05:50:02;;;;;;;15.95;8.45;;;;;;;2.57;84.86;96915.56;5011226;28;20381;-93
2021/12/09 05:52:30;;;;;;;26.90;14.50;;;;;;;2.41;88.65;96932.94;5008687;28;20055;-92
2021/12/09 05:54:56;;;;;;;15.02;7.07;;;;;;;2.35;88.16;96921.75;5005333;28;20081;-92
2021/12/09 05:57:21;;;;;;;8.25;4.80;;;;;;;2.28;87.40;96876.28;5009079;28;20086;-92
2021/12/09 05:59:47;;;;;;;13.60;7.57;;;;;;;2.36;88.18;96889.19;5014103;28;20033;-92
2021/12/09 06:02:16;;;;;;;8.77;4.05;;;;;;;2.87;81.72;96902.88;5007716;28;20029;-92
2021/12/09 06:04:43;;;;;;;6.20;3.40;;;;;;;3.40;76.20;96868.84;5008534;28;20049;-92
2021/12/09 06:07:09;;;;;;;8.18;4.20;;;;;;;3.84;72.13;96858.91;5008696;28;20048;-92
2021/12/09 06:09:34;;;;;;;7.47;4.57;;;;;;;4.14;70.68;96883.06;5008092;28;20034;-90
2021/12/09 06:12:00;;;;;;;6.53;3.58;;;;;;;4.42;68.21;96891.41;5007471;28;20025;-91
2021/12/09 06:14:26;;;;;;;3.92;2.55;;;;;;;4.81;66.57;96900.03;5006970;28;20107;-91
2021/12/09 06:16:52;;;;;;;7.70;4.10;;;;;;;4.67;67.43;96889.28;5007899;28;20026;-90
2021/12/09 06:19:17;;;;;;;11.85;6.22;;;;;;;4.60;68.25;96897.59;5007748;28;20037;-93
2021/12/09 06:21:43;;;;;;;6.90;3.90;;;;;;;4.74;67.22;96893.31;5005884;28;20026;-92
2021/12/09 06:24:09;;;;;;;15.65;7.03;;;;;;;4.76;68.26;96906.50;5004867;28;20079;-92
2021/12/09 06:26:34;;;;;;;11.82;6.13;;;;;;;4.93;67.24;96912.66;5022067;28;20026;-94
2021/12/09 06:29:01;;;;;;;16.95;6.50;;;;;;;4.84;68.14;96904.31;5005117;28;20512;-92
2021/12/09 06:31:26;;;;;;;15.00;6.13;;;;;;;4.78;68.04;96916.09;5007416;28;20036;-92
2021/12/09 06:33:52;;;;;;;11.90;4.50;;;;;;;4.73;69.39;96914.59;5006799;28;20030;-93
2021/12/09 06:36:19;;;;;;;12.05;5.65;;;;;;;4.81;66.76;96880.63;5024589;28;20040;-92
2021/12/09 06:38:51;;;;;;;7.50;4.45;;;;;;;5.24;65.72;96898.72;5007198;28;20049;-93
2021/12/09 06:41:19;;;;;;;11.98;6.40;;;;;;;5.14;64.69;96864.81;4996000;28;20081;-90
2021/12/09 06:43:45;;;;;;;7.00;4.07;;;;;;;4.78;65.30;96804.81;4988245;28;20117;-92
2021/12/09 06:46:12;;;;;;;8.98;5.45;;;;;;;5.07;66.41;96876.69;4987647;28;20109;-92
2021/12/09 06:48:38;;;;;;;7.78;4.13;;;;;;;4.89;68.38;96903.16;4987401;28;20044;-94
2021/12/09 06:51:07;;;;;;;10.35;4.63;;;;;;;4.87;66.94;96889.13;4988235;28;20040;-93
2021/12/09 06:53:34;;;;;;;13.30;7.22;;;;;;;6.57;61.62;96869.38;4987387;28;20033;-92
2021/12/09 06:56:00;;;;;;;9.23;5.07;;;;;;;8.33;57.54;96901.28;4995015;28;20504;-93
2021/12/09 06:58:26;;;;;;;8.75;4.97;;;;;;;9.69;52.32;96879.63;4986626;28;20053;-92
2021/12/09 07:00:54;;;;;;;8.48;5.68;;;;;;;10.00;50.53;96856.97;4987722;28;20026;-94
2021/12/09 07:03:21;;;;;;;9.93;5.80;;;;;;;10.37;48.82;96843.72;4988064;28;20412;-93
2021/12/09 07:05:49;;;;;;;12.65;5.25;;;;;;;10.85;47.33;96830.28;4988674;28;20060;-93
2021/12/09 07:08:15;;;;;;;13.73;7.22;;;;;;;10.12;48.40;96852.63;5004214;28;20018;-93
2021/12/09 07:10:41;;;;;;;12.73;5.93;;;;;;;10.55;47.79;96874.47;4989244;28;20045;-94
2021/12/09 07:13:07;;;;;;;12.18;4.97;;;;;;;10.14;nan;96872.94;4988364;28;20026;-94
2021/12/09 07:15:33;;;;;;;7.57;4.40;;;;;;;10.33;48.21;96859.97;4988523;28;20029;-92
2021/12/09 07:17:59;;;;;;;9.30;4.78;;;;;;;10.50;47.79;96871.25;4986531;28;20022;-93
2021/12/09 07:20:27;;;;;;;8.90;5.05;;;;;;;10.71;47.96;96858.97;4987556;28;20036;-92
2021/12/09 07:22:56;;;;;;;11.57;6.47;;;;;;;11.50;47.05;96866.41;4988542;28;20044;-93
2021/12/09 07:25:27;;;;;;;12.18;7.32;;;;;;;11.07;47.41;96852.75;4989291;28;20512;-94
2021/12/09 07:27:53;;;;;;;10.27;5.95;;;;;;;11.16;47.24;96889.53;4995972;28;20038;-95
2021/12/09 07:30:21;;;;;;;14.20;8.30;;;;;;;11.25;47.03;96833.47;4995747;28;20038;-94
2021/12/09 07:32:46;;;;;;;9.07;5.20;;;;;;;11.79;45.71;96862.34;4986055;28;20030;-93
2021/12/09 07:35:14;;;;;;;14.70;8.52;;;;;;;11.13;46.59;96810.31;4987829;28;20113;-95
2021/12/09 07:37:41;;;;;;;15.63;8.18;;;;;;;11.21;45.86;96817.75;4987730;28;20022;-94
2021/12/09 07:40:09;;;;;;;14.73;9.05;;;;;;;11.52;46.14;96848.38;5002852;28;20045;-95
2021/12/09 07:42:35;;;;;;;7.70;4.55;;;;;;;10.99;46.03;96815.84;5008219;28;20120;-94
2021/12/09 07:45:01;;;;;;;7.35;4.47;;;;;;;10.26;46.76;96781.19;5009925;28;20116;-94
2021/12/09 07:47:27;;;;;;;13.05;6.95;;;;;;;10.62;46.32;96819.53;5009776;28;20035;-95
2021/12/09 07:49:53;;;;;;;6.63;3.38;;;;;;;10.69;45.82;96839.53;5011588;28;20032;-94
2021/12/09 07:52:19;;;;;;;9.95;6.10;;;;;;;10.71;46.66;96789.44;5008724;28;20104;-95
2021/12/09 07:58:07;;;;;;;9.55;5.15;;;;;;;11.39;45.61;96835.06;5041835;28;20099;-95
2021/12/09 08:00:33;;;;;;;6.53;3.90;;;;;;;11.96;44.39;96851.19;5007796;28;20037;-94
2021/12/09 08:03:00;;;;;;;8.10;4.55;;;;;;;12.91;42.84;96830.00;5007390;28;20146;-93
2021/12/09 08:05:27;;;;;;;6.65;4.13;;;;;;;14.14;40.36;96814.03;5007154;28;20084;-96
2021/12/09 08:07:53;;;;;;;11.77;6.85;;;;;;;15.31;38.37;96814.19;5007463;28;20030;-93
2021/12/09 08:10:19;;;;;;;10.60;5.28;;;;;;;16.42;36.62;96816.09;5008105;28;20037;-94
2021/12/09 08:12:46;;;;;;;12.88;6.80;;;;;;;17.33;34.33;96774.56;5007888;28;20025;-94
2021/12/09 08:15:13;;;;;;;12.50;7.88;;;;;;;16.46;34.86;96750.00;5010622;28;20021;-93
2021/12/09 08:20:11;;;;;;;3.85;2.90;;;;;;;13.94;38.64;96769.22;5027627;28;20135;-94
2021/12/09 08:22:40;;;;;;;9.82;6.05;;;;;;;14.53;38.73;96772.84;5013851;28;20032;-94
2021/12/09 08:28:31;;;;;;;6.35;3.92;;;;;;;16.56;35.71;96758.06;5042074;28;20040;-95
2021/12/09 08:30:56;;;;;;;8.88;4.45;;;;;;;15.94;38.05;96772.25;5010368;28;20053;-94
2021/12/09 08:33:24;;;;;;;8.15;3.35;;;;;;;16.65;35.55;96773.38;5011524;28;20029;-94
2021/12/09 08:35:50;;;;;;;9.18;6.28;;;;;;;18.12;32.96;96769.13;5013766;28;20040;-96
2021/12/09 08:38:17;;;;;;;5.43;3.08;;;;;;;17.96;31.34;96712.19;5013122;28;20021;-94
2021/12/09 08:40:46;;;;;;;11.18;5.75;;;;;;;18.09;32.92;96742.38;5011481;28;20460;-94
2021/12/09 08:43:12;;;;;;;6.32;3.72;;;;;;;19.20;30.38;96752.91;5011416;28;20041;-95
2021/12/09 08:45:41;;;;;;;5.45;3.95;;;;;;;19.21;30.70;96711.22;5011241;28;20056;-95
2021/12/09 08:48:07;;;;;;;5.60;4.00;;;;;;;19.31;31.46;96755.31;5012964;28;20090;-96
2021/12/09 08:50:34;;;;;;;10.07;5.78;;;;;;;19.79;30.61;96728.19;5015488;28;20033;-95
2021/12/09 08:53:04;;;;;;;7.60;5.30;;;;;;;20.31;30.39;96727.72;5015503;28;20029;-95
2021/12/09 08:55:32;;;;;;;11.77;8.00;;;;;;;19.87;29.44;96709.16;5020200;28;20041;-95
2021/12/09 08:57:59;;;;;;;16.95;6.40;;;;;;;18.62;31.88;96721.28;5035497;28;20033;-94
2021/12/09 09:00:26;;;;;;;11.07;6.45;;;;;;;19.21;31.19;96750.03;5021690;28;20029;-95
2021/12/09 09:02:52;;;;;;;10.27;6.20;;;;;;;18.57;32.58;96723.66;5020135;28;20105;-96
2021/12/09 09:20:25;;;;;;;27.00;14.00;;;;;;;18.33;33.61;96727.06;5632337;23;20056;-92
2021/12/09 09:22:51;;;;;;;44.70;25.25;;;;;;;18.59;33.51;96731.59;4990070;28;20042;-95
2021/12/09 09:25:20;;;;;;;5.32;4.00;;;;;;;17.66;33.68;96727.88;4989028;28;20402;-93
2021/12/09 09:27:48;;;;;;;11.98;5.43;;;;;;;16.69;35.51;96716.22;4989920;28;20057;-95
2021/12/09 09:30:17;;;;;;;60.85;35.88;;;;;;;16.25;36.37;96760.19;4990166;28;20026;-92
2021/12/09 09:32:48;;;;;;;11.27;7.35;;;;;;;14.60;38.58;96728.25;4993780;28;20460;-96
2021/12/09 09:35:14;;;;;;;69.68;42.88;;;;;;;13.94;39.73;96739.63;4993998;28;20116;-93
2021/12/09 09:37:40;;;;;;;48.63;33.22;;;;;;;13.83;39.76;96726.31;4993212;28;20097;-94
2021/12/09 09:40:10;;;;;;;18.33;10.88;;;;;;;14.49;39.51;96749.91;4993091;28;20089;-93
2021/12/09 09:47:42;;;;;;;14.45;10.07;;;;;;;12.54;43.68;96806.28;5283558;23;20068;-95
2021/12/09 09:53:34;;;;;;;8.88;4.97;;;;;;;11.06;45.38;96723.44;5031563;28;20052;-94
2021/12/09 09:56:00;;;;;;;5.65;3.65;;;;;;;11.06;46.88;96776.09;4997268;28;20026;-92
2021/12/09 09:58:28;;;;;;;6.57;4.18;;;;;;;10.50;47.83;96729.53;4991805;28;20030;-96
2021/12/09 10:03:31;;;;;;;7.43;4.72;;;;;;;11.34;46.02;96728.34;5123081;23;20058;-94
2021/12/09 10:05:58;;;;;;;7.10;4.60;;;;;;;11.88;46.08;96808.03;4994056;28;20140;-94
2021/12/09 10:08:24;;;;;;;8.20;5.43;;;;;;;12.60;44.73;96784.31;4977285;28;20032;-93
2021/12/09 10:10:50;;;;;;;8.27;5.30;;;;;;;13.63;42.70;96767.53;4993095;28;20081;-92
2021/12/09 10:16:42;;;;;;;9.80;6.75;;;;;;;14.96;40.51;96747.41;5049165;23;20072;-93
2021/12/09 10:19:41;;;;;;;6.43;4.35;;;;;;;14.95;40.10;96729.56;5000868;28;20580;-93
2021/12/09 10:22:20;;;;;;;9.68;5.80;;;;;;;15.43;39.25;96761.84;4972745;28;20064;-94
2021/12/09 10:24:48;;;;;;;6.97;4.57;;;;;;;14.68;40.40;96729.38;5000104;28;20105;-94
2021/12/09 10:27:24;;;;;;;8.90;4.60;;;;;;;14.88;39.39;96677.25;4997828;28;20034;-93
2021/12/09 10:29:55;;;;;;;7.38;5.40;;;;;;;15.66;38.70;96680.50;5000099;28;20064;-95
2021/12/09 10:32:28;;;;;;;11.23;6.10;;;;;;;15.08;39.18;96668.16;4999097;28;20025;-94
2021/12/09 10:34:54;;;;;;;8.45;5.60;;;;;;;15.33;40.06;96716.03;4997984;28;20056;-94
2021/12/09 10:37:25;;;;;;;7.70;4.65;;;;;;;14.49;41.04;96663.78;4995580;28;20097;-94
2021/12/09 10:39:53;;;;;;;12.82;6.55;;;;;;;14.10;42.59;96694.28;4997883;28;20022;-94
2021/12/09 10:42:30;;;;;;;10.35;3.60;;;;;;;14.40;42.04;96726.50;4993492;28;20029;-94
2021/12/09 10:45:02;;;;;;;6.40;4.03;;;;;;;15.56;40.80;96730.94;4992748;28;20006;-94
2021/12/09 10:50:27;;;;;;;10.25;4.75;;;;;;;16.75;36.95;96653.47;5016221;28;20085;-95
2021/12/09 10:53:33;;;;;;;4.78;3.42;;;;;;;16.24;36.68;96623.59;5030613;28;20033;-94
2021/12/09 10:56:10;;;;;;;6.13;4.47;;;;;;;15.31;38.42;96650.69;4999506;28;20029;-94
2021/12/09 10:58:42;;;;;;;6.63;4.68;;;;;;;14.90;39.64;96634.88;4994041;28;20017;-94
2021/12/09 11:01:14;;;;;;;9.15;5.22;;;;;;;14.95;40.85;96708.00;4997668;28;20038;-95
2021/12/09 11:03:53;;;;;;;5.57;3.63;;;;;;;13.84;41.35;96633.94;4996946;28;20045;-93
2021/12/09 11:06:23;;;;;;;6.32;4.45;;;;;;;14.13;41.99;96719.06;4997281;28;20034;-94
2021/12/09 11:08:57;;;;;;;6.90;3.92;;;;;;;14.26;41.38;96639.94;4998637;28;20558;-94
2021/12/09 11:11:32;;;;;;;8.38;4.85;;;;;;;15.32;40.01;96641.56;4997286;28;20009;-96
2021/12/09 11:21:33;;;;;;;9.95;6.88;;;;;;;16.73;38.15;96701.38;4996027;28;20111;-95
2021/12/09 11:28:09;;;;;;;5.80;3.77;;;;;;;13.72;43.54;96727.22;4996329;28;20050;-96
2021/12/09 11:31:08;;;;;;;7.97;5.07;;;;;;;12.90;45.04;96655.63;4995359;28;20035;-96
2021/12/09 11:33:41;;;;;;;8.13;4.32;;;;;;;13.10;44.60;96660.19;4978538;28;20031;-93
2021/12/09 11:36:14;;;;;;;8.05;4.80;;;;;;;12.70;45.39;96661.84;4977120;28;20035;-94
2021/12/09 11:54:09;;;;;;;11.82;6.47;;;;;;;13.04;45.79;96730.50;4983753;28;20047;-95
2021/12/09 11:56:56;;;;;;;12.85;6.80;;;;;;;13.02;45.16;96676.06;4955540;28;20069;-94
2021/12/09 13:54:18;;;;;;;23.83;11.80;;;;;;;11.39;53.33;96703.88;5014640;28;20445;-96
2021/12/09 13:56:45;;;;;;;43.15;19.65;;;;;;;10.52;54.13;96608.16;4995977;28;20029;-94
2021/12/09 13:59:19;;;;;;;203.25;87.60;;;;;;;10.45;54.73;96614.09;4999698;28;20026;-95
2021/12/09 14:01:46;;;;;;;17.42;9.45;;;;;;;10.27;55.46;96601.16;4997919;28;20082;-96
2021/12/09 14:04:20;;;;;;;27.98;14.18;;;;;;;10.07;57.31;96609.78;4998384;28;20169;-94
2021/12/09 14:06:58;;;;;;;22.73;12.70;;;;;;;10.17;56.12;96608.19;5009189;28;20084;-95
2021/12/09 14:09:26;;;;;;;33.03;15.15;;;;;;;9.95;57.17;96597.34;5000242;28;20068;-94
2021/12/09 14:12:03;;;;;;;33.88;16.20;;;;;;;9.73;59.09;96594.56;4995699;28;20061;-92
2021/12/09 14:18:22;;;;;;;29.88;16.95;;;;;;;9.79;58.77;96628.81;5036581;28;20084;-95
2021/12/09 14:21:09;;;;;;;118.00;52.95;;;;;;;9.93;58.68;96630.50;4996836;28;20032;-94
2021/12/09 14:23:35;;;;;;;20.42;10.43;;;;;;;9.72;58.43;96582.19;5013565;28;20036;-95
2021/12/09 14:26:01;;;;;;;9.65;5.63;;;;;;;9.49;57.81;96556.34;5001671;28;20061;-94
2021/12/09 14:28:27;;;;;;;13.88;7.60;;;;;;;9.73;57.99;96583.88;4998706;28;20030;-94
2021/12/09 14:30:56;;;;;;;30.17;17.35;;;;;;;9.62;58.37;96574.00;4997274;28;20045;-95
2021/12/09 14:33:22;;;;;;;22.80;14.07;;;;;;;9.61;58.72;96580.31;5000788;28;20029;-95
2021/12/09 14:35:53;;;;;;;23.58;13.52;;;;;;;9.60;59.83;96613.31;5000096;28;20113;-95
2021/12/09 14:44:16;;;;;;;17.73;9.50;;;;;;;9.41;59.60;96572.06;4995357;28;20073;-94
2021/12/09 14:46:46;;;;;;;12.73;6.80;;;;;;;9.48;59.97;96600.00;4980855;28;20118;-95